createdAt,value
2023-05-20T00:01:30.433Z,92.50
2023-05-20T00:03:57.775Z,90.13
2023-05-20T00:06:24.730Z,89.10
2023-05-20T00:08:51.404Z,92.18
2023-05-20T00:11:18.172Z,88.10
2023-05-20T00:13:45.252Z,90.32
2023-05-20T00:16:11.947Z,89.03
2023-05-20T00:18:38.694Z,93.17
2023-05-20T00:21:05.439Z,92.65
2023-05-20T00:23:32.102Z,89.28
2023-05-20T00:26:00.712Z,88.95
2023-05-20T00:28:27.755Z,91.78
2023-05-20T00:30:54.963Z,88.40
2023-05-20T00:33:21.611Z,90.55
2023-05-20T00:35:48.308Z,92.18
2023-05-20T00:38:14.968Z,90.88
2023-05-20T00:40:41.650Z,91.30
2023-05-20T00:43:10.421Z,89.28
2023-05-20T00:45:38.285Z,90.10
2023-05-20T00:48:06.441Z,89.45
2023-05-20T00:50:33.211Z,90.30
2023-05-20T00:52:59.994Z,89.43
2023-05-20T00:55:26.702Z,89.20
2023-05-20T00:57:54.303Z,89.57
2023-05-20T01:00:21.005Z,89.45
2023-05-20T01:02:49.275Z,89.25
2023-05-20T01:05:16.104Z,89.63
2023-05-20T01:07:43.129Z,90.22
2023-05-20T01:10:10.760Z,89.57
2023-05-20T01:12:41.243Z,92.80
2023-05-20T01:15:12.541Z,90.30
2023-05-20T01:17:52.301Z,92.82
2023-05-20T01:20:21.024Z,90.50
2023-05-20T01:22:55.210Z,90.13
2023-05-20T01:25:22.714Z,89.28
2023-05-20T01:27:50.386Z,90.03
2023-05-20T01:30:17.492Z,89.97
2023-05-20T01:32:52.470Z,90.75
2023-05-20T01:35:21.611Z,94.82
2023-05-20T01:37:50.555Z,89.10
2023-05-20T01:40:18.342Z,93.47
2023-05-20T01:42:46.516Z,91.30
2023-05-20T01:45:13.395Z,94.10
2023-05-20T01:47:40.764Z,90.18
2023-05-20T01:50:08.016Z,93.20
2023-05-20T01:52:34.725Z,89.45
2023-05-20T01:55:01.544Z,93.05
2023-05-20T01:57:28.253Z,91.72
2023-05-20T01:59:54.968Z,91.57
2023-05-20T02:02:21.677Z,90.65
2023-05-20T02:04:50.692Z,90.68
2023-05-20T02:07:21.187Z,91.40
2023-05-20T02:09:48.350Z,90.70
2023-05-20T02:12:18.124Z,90.63
2023-05-20T02:14:48.206Z,91.75
2023-05-20T02:17:16.633Z,89.25
2023-05-20T02:19:44.596Z,103.57
2023-05-20T02:22:11.723Z,90.05
2023-05-20T02:24:38.618Z,93.83
2023-05-20T02:27:06.374Z,95.50
2023-05-20T02:29:33.145Z,92.43
2023-05-20T02:31:59.865Z,89.30
2023-05-20T02:34:27.465Z,93.50
2023-05-20T02:36:54.436Z,90.32
2023-05-20T02:39:21.134Z,92.18
2023-05-20T02:41:47.870Z,90.00
2023-05-20T02:44:15.010Z,103.32
2023-05-20T02:46:41.836Z,91.18
2023-05-20T02:49:08.540Z,90.43
2023-05-20T02:51:35.334Z,91.78
2023-05-20T02:54:02.008Z,92.03
2023-05-20T02:56:28.724Z,92.47
2023-05-20T02:58:55.449Z,89.97
2023-05-20T03:01:23.343Z,93.22
2023-05-20T03:03:50.112Z,90.35
2023-05-20T03:06:16.791Z,91.93
2023-05-20T03:08:43.475Z,91.38
2023-05-20T03:11:10.201Z,91.07
2023-05-20T03:13:36.966Z,90.45
2023-05-20T03:16:03.867Z,92.38
2023-05-20T03:18:30.834Z,91.57
2023-05-20T03:20:57.608Z,90.13
2023-05-20T03:23:24.354Z,91.75
2023-05-20T03:25:51.562Z,91.40
2023-05-20T03:28:18.267Z,93.20
2023-05-20T03:30:45.010Z,90.95
2023-05-20T03:33:11.952Z,92.30
2023-05-20T03:35:38.610Z,90.38
2023-05-20T03:38:05.542Z,91.78
2023-05-20T03:40:32.262Z,93.22
2023-05-20T03:42:58.964Z,90.55
2023-05-20T03:45:25.663Z,91.07
2023-05-20T03:47:52.464Z,91.30
2023-05-20T03:50:19.249Z,95.57
2023-05-20T03:52:45.927Z,91.55
2023-05-20T03:55:12.701Z,91.35
2023-05-20T03:57:39.799Z,93.03
2023-05-20T04:00:11.411Z,91.13
2023-05-20T04:02:38.653Z,90.78
2023-05-20T04:05:08.518Z,89.63
2023-05-20T04:07:35.863Z,90.25
2023-05-20T04:10:03.724Z,92.68
2023-05-20T04:12:32.191Z,96.80
2023-05-20T04:15:01.168Z,91.35
2023-05-20T04:17:30.037Z,96.38
2023-05-20T04:20:00.054Z,94.25
2023-05-20T04:22:27.018Z,90.93
2023-05-20T04:24:53.809Z,90.85
2023-05-20T04:27:21.416Z,91.18
2023-05-20T04:29:48.177Z,90.97
2023-05-20T04:32:18.566Z,90.43
2023-05-20T04:34:46.094Z,89.22
2023-05-20T04:37:13.821Z,90.18
2023-05-20T04:39:40.493Z,90.70
2023-05-20T04:42:07.307Z,92.82
2023-05-20T04:44:34.450Z,96.10
2023-05-20T04:47:01.361Z,93.13
2023-05-20T04:49:29.873Z,91.45
2023-05-20T04:51:56.592Z,92.13
2023-05-20T04:54:23.413Z,90.88
2023-05-20T04:56:51.021Z,90.25
2023-05-20T04:59:17.954Z,92.15
2023-05-20T05:01:44.755Z,92.03
2023-05-20T05:04:11.594Z,91.20
2023-05-20T05:06:38.326Z,91.13
2023-05-20T05:09:05.083Z,90.05
2023-05-20T05:11:31.792Z,91.63
2023-05-20T05:13:58.519Z,92.57
2023-05-20T05:16:25.478Z,90.70
2023-05-20T05:18:52.246Z,91.43
2023-05-20T05:21:18.971Z,91.38
2023-05-20T05:23:45.990Z,90.40
2023-05-20T05:26:12.681Z,91.13
2023-05-20T05:28:41.349Z,92.72
2023-05-20T05:31:08.189Z,91.32
2023-05-20T05:33:34.981Z,90.72
2023-05-20T05:36:02.606Z,90.43
2023-05-20T05:38:29.289Z,91.88
2023-05-20T05:40:56.769Z,91.63
2023-05-20T05:43:23.585Z,90.93
2023-05-20T05:45:50.281Z,91.47
2023-05-20T05:48:16.923Z,89.90
2023-05-20T05:50:47.203Z,92.38
2023-05-20T05:53:13.931Z,90.53
2023-05-20T05:55:40.629Z,90.97
2023-05-20T05:58:07.322Z,90.38
2023-05-20T06:00:34.097Z,92.68
2023-05-20T06:03:01.369Z,90.80
2023-05-20T06:05:29.786Z,90.57
2023-05-20T06:07:56.749Z,90.88
2023-05-20T06:10:23.587Z,90.85
2023-05-20T06:12:50.462Z,90.07
2023-05-20T06:15:17.123Z,92.18
2023-05-20T06:17:44.214Z,92.20
2023-05-20T06:20:11.436Z,91.60
2023-05-20T06:22:38.187Z,93.03
2023-05-20T06:25:06.281Z,89.93
2023-05-20T06:27:33.275Z,89.23
2023-05-20T06:29:59.979Z,93.35
2023-05-20T06:32:27.581Z,90.60
2023-05-20T06:34:54.285Z,92.90
2023-05-20T06:37:24.275Z,88.53
2023-05-20T06:39:53.812Z,89.15
2023-05-20T06:42:24.034Z,87.80
2023-05-20T06:44:50.714Z,86.90
2023-05-20T06:47:18.122Z,87.57
2023-05-20T06:49:47.315Z,90.60
2023-05-20T06:52:14.475Z,87.17
2023-05-20T06:54:41.646Z,88.80
2023-05-20T06:57:09.220Z,87.80
2023-05-20T06:59:36.776Z,91.47
2023-05-20T07:02:04.262Z,89.50
2023-05-20T07:04:30.968Z,89.97
2023-05-20T07:06:57.630Z,90.57
2023-05-20T07:09:24.421Z,91.27
2023-05-20T07:11:51.137Z,89.50
2023-05-20T07:14:17.898Z,90.90
2023-05-20T07:16:44.708Z,94.87
2023-05-20T07:19:11.609Z,89.03
2023-05-20T07:21:38.494Z,92.13
2023-05-20T07:24:05.550Z,90.05
2023-05-20T07:26:36.059Z,99.67
2023-05-20T07:29:04.088Z,89.47
2023-05-20T07:31:31.433Z,89.40
2023-05-20T07:33:58.836Z,89.40
2023-05-20T07:36:27.759Z,94.10
2023-05-20T07:39:03.268Z,90.40
2023-05-20T07:41:31.286Z,94.20
2023-05-20T07:43:57.976Z,91.45
2023-05-20T07:46:24.824Z,95.60
2023-05-20T07:48:51.552Z,89.00
2023-05-20T07:51:18.971Z,91.40
2023-05-20T07:53:45.761Z,89.87
2023-05-20T07:56:12.633Z,96.20
2023-05-20T07:58:41.899Z,93.80
2023-05-20T08:01:09.443Z,89.50
2023-05-20T08:03:36.726Z,88.70
2023-05-20T08:06:03.870Z,89.77
2023-05-20T08:08:30.810Z,90.17
2023-05-20T08:10:57.610Z,90.80
2023-05-20T08:13:25.795Z,91.17
2023-05-20T08:15:54.636Z,89.40
2023-05-20T08:18:21.572Z,90.33
2023-05-20T08:20:48.294Z,92.27
2023-05-20T08:23:15.005Z,87.20
2023-05-20T08:25:41.644Z,89.47
2023-05-20T08:28:08.426Z,87.97
2023-05-20T08:30:35.114Z,89.60
2023-05-20T08:33:01.996Z,88.63
2023-05-20T08:35:28.854Z,87.77
2023-05-20T08:37:55.528Z,88.87
2023-05-20T08:40:22.542Z,92.30
2023-05-20T08:42:52.880Z,87.40
2023-05-20T08:45:21.228Z,89.17
2023-05-20T08:47:48.105Z,87.27
2023-05-20T08:50:16.200Z,88.33
2023-05-20T08:52:45.482Z,89.67
2023-05-20T08:55:17.266Z,88.00
2023-05-20T08:57:45.888Z,87.00
2023-05-20T09:00:17.063Z,86.77
2023-05-20T09:02:46.207Z,86.80
2023-05-20T09:05:13.403Z,86.77
2023-05-20T09:07:42.573Z,86.90
2023-05-20T09:10:09.698Z,90.17
2023-05-20T09:12:37.942Z,87.20
2023-05-20T09:15:05.187Z,88.87
2023-05-20T09:17:32.534Z,86.97
2023-05-20T09:19:59.266Z,89.77
2023-05-20T09:22:29.530Z,89.63
2023-05-20T09:24:56.522Z,86.70
2023-05-20T09:27:24.727Z,89.27
2023-05-20T09:29:51.930Z,89.80
2023-05-20T09:32:24.194Z,87.50
2023-05-20T09:34:51.172Z,88.67
2023-05-20T09:37:22.044Z,86.67
2023-05-20T09:40:01.082Z,90.67
2023-05-20T09:42:31.680Z,88.07
2023-05-20T09:44:58.850Z,86.70
2023-05-20T09:47:26.186Z,86.17
2023-05-20T09:49:53.809Z,87.03
2023-05-20T09:52:21.642Z,87.97
2023-05-20T09:54:49.554Z,86.80
2023-05-20T09:57:16.317Z,87.70
2023-05-20T09:59:44.440Z,86.97
2023-05-20T10:02:11.181Z,89.40
2023-05-20T10:04:43.172Z,87.93
2023-05-20T10:07:41.774Z,92.23
2023-05-20T10:10:21.578Z,87.60
2023-05-20T10:13:06.670Z,88.50
2023-05-20T10:16:05.562Z,89.77
2023-05-20T10:18:53.813Z,90.47
2023-05-20T10:21:24.475Z,91.20
2023-05-20T10:23:52.343Z,89.63
2023-05-20T10:26:19.660Z,88.60
2023-05-20T10:28:46.738Z,87.07
2023-05-20T10:31:22.160Z,88.00
2023-05-20T10:33:49.496Z,86.30
2023-05-20T10:36:31.551Z,86.90
2023-05-20T10:39:00.011Z,87.80
2023-05-20T10:41:29.358Z,88.43
2023-05-20T10:44:06.664Z,85.60
2023-05-20T10:46:44.139Z,86.37
2023-05-20T10:49:24.049Z,87.50
2023-05-20T10:51:54.218Z,85.83
2023-05-20T10:54:22.819Z,86.07
2023-05-20T10:56:54.112Z,86.80
2023-05-20T10:59:21.869Z,86.40
2023-05-20T11:01:49.481Z,83.87
2023-05-20T11:04:17.295Z,85.00
2023-05-20T11:06:51.960Z,85.37
2023-05-20T11:09:18.639Z,84.47
2023-05-20T11:11:45.483Z,89.27
2023-05-20T11:14:16.384Z,86.43
2023-05-20T11:16:43.191Z,86.50
2023-05-20T11:19:16.387Z,86.57
2023-05-20T11:21:44.542Z,87.17
2023-05-20T11:24:11.889Z,85.80
2023-05-20T11:26:39.660Z,85.47
2023-05-20T11:29:07.009Z,88.40
2023-05-20T11:31:33.957Z,86.40
2023-05-20T11:34:04.225Z,87.50
2023-05-20T11:36:31.134Z,89.27
2023-05-20T11:38:58.951Z,87.57
2023-05-20T11:41:26.870Z,85.63
2023-05-20T11:44:00.410Z,85.83
2023-05-20T11:46:28.582Z,86.30
2023-05-20T11:48:56.069Z,85.37
2023-05-20T11:51:30.065Z,87.53
2023-05-20T11:54:03.877Z,86.80
2023-05-20T11:56:34.521Z,87.47
2023-05-20T11:59:01.482Z,88.47
2023-05-20T12:01:31.211Z,87.00
2023-05-20T12:03:57.953Z,85.27
2023-05-20T12:06:24.941Z,85.93
2023-05-20T12:08:51.997Z,86.00
2023-05-20T12:11:18.743Z,88.07
2023-05-20T12:13:45.514Z,87.30
2023-05-20T12:16:12.215Z,89.37
2023-05-20T12:18:38.924Z,85.60
2023-05-20T12:21:05.797Z,86.60
2023-05-20T12:23:34.196Z,85.00
2023-05-20T12:26:01.205Z,88.77
2023-05-20T12:28:27.926Z,87.30
2023-05-20T12:30:54.588Z,87.43
2023-05-20T12:33:21.405Z,86.20
2023-05-20T12:35:48.104Z,88.87
2023-05-20T12:38:14.902Z,86.57
2023-05-20T12:40:41.640Z,86.90
2023-05-20T12:43:08.360Z,85.07
2023-05-20T12:45:35.057Z,93.50
2023-05-20T12:48:02.117Z,89.10
2023-05-20T12:50:28.898Z,83.97
2023-05-20T12:52:55.935Z,85.77
2023-05-20T12:55:22.732Z,89.97
2023-05-20T12:57:50.103Z,86.67
2023-05-20T13:00:17.176Z,86.07
2023-05-20T13:02:44.021Z,87.53
2023-05-20T13:05:11.372Z,85.20
2023-05-20T13:07:38.397Z,86.10
2023-05-20T13:10:06.282Z,84.50
2023-05-20T13:12:34.853Z,84.90
2023-05-20T13:15:01.594Z,84.87
2023-05-20T13:17:28.429Z,86.17
2023-05-20T13:19:55.858Z,87.07
2023-05-20T13:22:22.852Z,86.67
2023-05-20T13:24:49.523Z,88.47
2023-05-20T13:27:16.337Z,85.37
2023-05-20T13:29:43.679Z,87.47
2023-05-20T13:32:10.573Z,89.87
2023-05-20T13:34:38.629Z,90.87
2023-05-20T13:37:06.209Z,88.30
2023-05-20T13:39:33.057Z,88.57
2023-05-20T13:41:59.901Z,87.67
2023-05-20T13:44:26.554Z,92.57
2023-05-20T13:46:53.264Z,87.80
2023-05-20T13:49:20.633Z,90.17
2023-05-20T13:51:47.332Z,90.77
2023-05-20T13:54:13.980Z,91.03
2023-05-20T13:56:40.782Z,91.13
2023-05-20T13:59:07.454Z,90.10
2023-05-20T14:01:34.208Z,92.60
2023-05-20T14:04:01.113Z,97.87
2023-05-20T14:06:29.372Z,88.83
2023-05-20T14:08:57.015Z,91.30
2023-05-20T14:11:23.804Z,89.77
2023-05-20T14:13:50.502Z,89.67
2023-05-20T14:16:17.234Z,100.40
2023-05-20T14:18:44.129Z,89.27
2023-05-20T14:21:11.942Z,88.47
2023-05-20T14:23:41.021Z,89.10
2023-05-20T14:26:07.757Z,88.63
2023-05-20T14:28:34.543Z,88.20
2023-05-20T14:31:01.326Z,89.20
2023-05-20T14:33:28.029Z,90.63
2023-05-20T14:35:54.768Z,90.10
2023-05-20T14:38:21.787Z,89.33
2023-05-20T14:40:48.528Z,89.57
2023-05-20T14:43:15.397Z,88.37
2023-05-20T14:45:42.154Z,93.83
2023-05-20T14:48:08.952Z,88.87
2023-05-20T14:50:35.884Z,88.10
2023-05-20T14:53:02.763Z,88.37
2023-05-20T14:55:29.549Z,90.10
2023-05-20T14:57:56.239Z,89.37
2023-05-20T15:00:22.912Z,90.30
2023-05-20T15:02:49.658Z,91.93
2023-05-20T15:05:17.984Z,90.07
2023-05-20T15:07:44.943Z,90.20
2023-05-20T15:10:13.654Z,90.13
2023-05-20T15:12:40.381Z,89.77
2023-05-20T15:15:07.449Z,89.90
2023-05-20T15:17:34.209Z,90.80
2023-05-20T15:20:01.201Z,90.30
2023-05-20T15:22:27.912Z,88.97
2023-05-20T15:24:54.622Z,90.47
2023-05-20T15:27:21.297Z,90.87
2023-05-20T15:29:48.672Z,93.10
2023-05-20T15:32:15.689Z,94.80
2023-05-20T15:34:42.404Z,90.70
2023-05-20T15:37:09.188Z,89.63
2023-05-20T15:39:38.235Z,90.50
2023-05-20T15:42:06.298Z,89.93
2023-05-20T15:44:33.524Z,91.77
2023-05-20T15:47:00.208Z,89.77
2023-05-20T15:49:26.904Z,89.47
2023-05-20T15:52:02.808Z,90.70
2023-05-20T15:54:30.076Z,92.17
2023-05-20T15:56:57.864Z,99.03
2023-05-20T15:59:24.627Z,93.00
2023-05-20T16:01:52.369Z,92.57
2023-05-20T16:04:19.282Z,92.33
2023-05-20T16:06:46.698Z,93.10
2023-05-20T16:09:13.434Z,93.17
2023-05-20T16:11:40.090Z,97.87
2023-05-20T16:14:06.751Z,91.00
2023-05-20T16:16:35.845Z,91.17
2023-05-20T16:19:02.731Z,90.60
2023-05-20T16:21:29.443Z,89.87
2023-05-20T16:23:56.112Z,92.23
2023-05-20T16:26:23.002Z,92.27
2023-05-20T16:28:49.663Z,89.70
2023-05-20T16:31:16.361Z,95.40
2023-05-20T16:33:43.103Z,89.00
2023-05-20T16:36:09.770Z,91.63
2023-05-20T16:38:36.512Z,90.77
2023-05-20T16:41:03.190Z,97.53
2023-05-20T16:43:29.915Z,91.57
2023-05-20T16:45:56.788Z,93.20
2023-05-20T16:48:23.683Z,90.90
2023-05-20T16:50:50.478Z,92.27
2023-05-20T16:53:17.161Z,92.67
2023-05-20T16:55:43.848Z,92.87
2023-05-20T16:58:10.592Z,92.93
2023-05-20T17:00:37.321Z,92.10
2023-05-20T17:03:04.446Z,90.80
2023-05-20T17:05:31.430Z,91.20
2023-05-20T17:08:00.320Z,93.40
2023-05-20T17:10:28.856Z,92.97
2023-05-20T17:12:55.729Z,92.03
2023-05-20T17:15:23.478Z,93.00
2023-05-20T17:17:50.593Z,93.60
2023-05-20T17:20:17.507Z,96.40
2023-05-20T17:22:44.247Z,93.73
2023-05-20T17:25:11.298Z,92.47
2023-05-20T17:27:38.276Z,94.13
2023-05-20T17:30:05.704Z,93.50
2023-05-20T17:32:32.463Z,93.50
2023-05-20T17:34:59.192Z,93.20
2023-05-20T17:37:26.042Z,94.50
2023-05-20T17:39:52.710Z,93.43
2023-05-20T17:42:19.348Z,92.50
2023-05-20T17:44:46.072Z,94.10
2023-05-20T17:47:12.813Z,94.03
2023-05-20T17:49:39.691Z,93.67
2023-05-20T17:52:06.752Z,95.27
2023-05-20T17:54:33.441Z,92.27
2023-05-20T17:57:00.196Z,96.87
2023-05-20T17:59:26.863Z,93.50
2023-05-20T18:01:53.550Z,92.93
2023-05-20T18:04:21.807Z,98.40
2023-05-20T18:06:48.577Z,95.57
2023-05-20T18:09:15.339Z,97.40
2023-05-20T18:11:42.144Z,94.60
2023-05-20T18:14:08.844Z,94.90
2023-05-20T18:16:35.867Z,96.47
2023-05-20T18:19:03.020Z,94.03
2023-05-20T18:21:30.488Z,98.87
2023-05-20T18:23:57.231Z,94.37
2023-05-20T18:26:23.937Z,95.10
2023-05-20T18:28:50.941Z,95.77
2023-05-20T18:31:17.681Z,95.10
2023-05-20T18:33:44.389Z,97.40
2023-05-20T18:36:11.152Z,97.27
2023-05-20T18:38:39.127Z,96.70
2023-05-20T18:41:07.952Z,95.83
2023-05-20T18:43:34.666Z,98.37
2023-05-20T18:46:01.486Z,99.03
2023-05-20T18:48:28.322Z,97.60
2023-05-20T18:50:56.053Z,94.87
2023-05-20T18:53:22.884Z,98.47
2023-05-20T18:55:49.571Z,96.57
2023-05-20T18:58:16.257Z,100.53
2023-05-20T19:00:42.984Z,99.23
2023-05-20T19:03:09.671Z,98.50
2023-05-20T19:05:36.890Z,101.20
2023-05-20T19:08:05.814Z,101.77
2023-05-20T19:10:32.760Z,101.37
2023-05-20T19:12:59.784Z,98.53
2023-05-20T19:15:26.707Z,98.60
2023-05-20T19:17:53.632Z,99.30
2023-05-20T19:20:20.521Z,99.38
2023-05-20T19:22:47.382Z,97.70
2023-05-20T19:25:14.235Z,99.70
2023-05-20T19:27:41.275Z,101.30
2023-05-20T19:30:10.705Z,108.27
2023-05-20T19:32:38.574Z,102.97
2023-05-20T19:35:06.237Z,100.90
2023-05-20T19:37:33.207Z,99.33
2023-05-20T19:39:59.904Z,100.82
2023-05-20T19:42:26.746Z,102.07
2023-05-20T19:44:54.147Z,102.43
2023-05-20T19:47:21.393Z,99.93
2023-05-20T19:49:48.357Z,99.07
2023-05-20T19:52:15.091Z,101.47
2023-05-20T19:54:42.811Z,104.33
2023-05-20T19:57:09.988Z,98.07
2023-05-20T19:59:38.054Z,100.65
2023-05-20T20:02:06.665Z,105.37
2023-05-20T20:04:33.506Z,100.67
2023-05-20T20:07:00.883Z,103.23
2023-05-20T20:09:27.895Z,103.70
2023-05-20T20:11:54.692Z,102.13
2023-05-20T20:14:21.677Z,100.80
2023-05-20T20:16:49.322Z,100.93
2023-05-20T20:19:18.694Z,106.27
2023-05-20T20:21:46.377Z,103.97
2023-05-20T20:24:13.156Z,103.87
2023-05-20T20:26:40.541Z,102.45
2023-05-20T20:29:10.372Z,102.13
2023-05-20T20:31:37.682Z,103.28
2023-05-20T20:34:04.595Z,100.90
2023-05-20T20:36:32.046Z,103.50
2023-05-20T20:38:59.446Z,102.00
2023-05-20T20:41:26.157Z,103.27
2023-05-20T20:43:53.169Z,98.03
2023-05-20T20:46:20.243Z,103.78
2023-05-20T20:48:47.184Z,103.73
2023-05-20T20:51:15.275Z,100.77
2023-05-20T20:53:42.960Z,101.03
2023-05-20T20:56:10.130Z,103.65
2023-05-20T20:58:37.788Z,101.85
2023-05-20T21:01:05.975Z,101.00
2023-05-20T21:03:39.910Z,100.40
2023-05-20T21:06:07.704Z,101.97
2023-05-20T21:08:34.604Z,101.53
2023-05-20T21:11:01.468Z,100.47
2023-05-20T21:13:28.778Z,101.88
2023-05-20T21:15:55.448Z,104.53
2023-05-20T21:18:23.719Z,104.40
2023-05-20T21:20:51.554Z,103.65
2023-05-20T21:23:19.297Z,104.68
2023-05-20T21:25:46.224Z,103.82
2023-05-20T21:28:13.070Z,102.78
2023-05-20T21:30:39.863Z,102.50
2023-05-20T21:33:06.772Z,102.30
2023-05-20T21:35:33.619Z,102.65
2023-05-20T21:38:00.430Z,102.28
2023-05-20T21:40:27.134Z,102.83
2023-05-20T21:42:53.787Z,106.63
2023-05-20T21:45:20.617Z,103.25
2023-05-20T21:47:47.334Z,105.30
2023-05-20T21:50:14.098Z,117.63
2023-05-20T21:52:40.819Z,100.63
2023-05-20T21:55:09.475Z,100.93
2023-05-20T21:57:36.706Z,102.10
2023-05-20T22:00:09.496Z,105.17
2023-05-20T22:02:36.638Z,99.63
2023-05-20T22:05:04.794Z,102.57
2023-05-20T22:07:31.796Z,103.00
2023-05-20T22:09:58.971Z,103.80
2023-05-20T22:12:25.819Z,104.45
2023-05-20T22:14:52.481Z,105.30
2023-05-20T22:17:20.350Z,107.10
2023-05-20T22:19:47.724Z,101.38
2023-05-20T22:22:14.671Z,106.70
2023-05-20T22:24:41.352Z,113.47
2023-05-20T22:27:08.017Z,105.07
2023-05-20T22:29:35.171Z,102.68
2023-05-20T22:32:02.027Z,101.47
2023-05-20T22:34:28.885Z,102.30
2023-05-20T22:36:55.564Z,105.35
2023-05-20T22:39:22.252Z,104.60
2023-05-20T22:41:49.115Z,103.93
2023-05-20T22:44:15.795Z,101.97
2023-05-20T22:46:42.467Z,102.50
2023-05-20T22:49:10.318Z,104.53
2023-05-20T22:51:38.543Z,103.57
2023-05-20T22:54:06.884Z,101.53
2023-05-20T22:56:34.160Z,106.35
2023-05-20T22:59:01.320Z,114.55
2023-05-20T23:01:28.145Z,101.30
2023-05-20T23:03:55.259Z,102.28
2023-05-20T23:06:22.422Z,106.75
2023-05-20T23:08:49.259Z,105.78
2023-05-20T23:11:15.979Z,102.35
2023-05-20T23:13:42.669Z,104.40
2023-05-20T23:16:10.171Z,103.22
2023-05-20T23:18:37.064Z,101.82
2023-05-20T23:21:04.170Z,100.45
2023-05-20T23:23:32.261Z,101.05
2023-05-20T23:25:59.748Z,102.00
2023-05-20T23:28:26.581Z,103.18
2023-05-20T23:30:53.437Z,104.13
2023-05-20T23:33:24.703Z,101.75
2023-05-20T23:35:52.402Z,103.87
2023-05-20T23:38:19.155Z,104.05
2023-05-20T23:40:45.801Z,102.25
2023-05-20T23:43:12.481Z,105.22
2023-05-20T23:45:39.247Z,103.32
2023-05-20T23:48:07.056Z,106.80
2023-05-20T23:50:33.823Z,104.10
2023-05-20T23:53:00.568Z,105.68
2023-05-20T23:55:30.026Z,103.85
2023-05-20T23:57:56.727Z,104.80
